createdAt,value
2023-03-27T00:01:44.939Z,6.02
2023-03-27T00:06:49.028Z,6.03
2023-03-27T00:11:52.849Z,6.00
2023-03-27T00:17:00.375Z,5.92
2023-03-27T00:22:03.934Z,5.87
2023-03-27T00:27:09.227Z,5.94
2023-03-27T00:32:14.116Z,5.99
2023-03-27T00:37:18.306Z,6.04
2023-03-27T00:42:24.856Z,5.93
2023-03-27T00:47:33.596Z,5.86
2023-03-27T00:52:37.371Z,5.77
2023-03-27T00:57:41.441Z,5.81
2023-03-27T01:02:49.902Z,5.89
2023-03-27T01:08:00.400Z,5.98
2023-03-27T01:13:18.665Z,5.96
2023-03-27T01:18:38.132Z,5.96
2023-03-27T01:24:17.504Z,6.03
2023-03-27T01:29:26.332Z,6.09
2023-03-27T01:35:02.119Z,6.02
2023-03-27T01:46:01.554Z,5.80
2023-03-27T01:51:10.359Z,5.76
2023-03-27T01:56:26.302Z,5.72
2023-03-27T02:01:34.408Z,5.64
2023-03-27T02:06:42.670Z,5.56
2023-03-27T02:11:54.874Z,5.37
2023-03-27T02:17:03.678Z,5.22
2023-03-27T02:22:07.830Z,5.06
2023-03-27T02:27:23.558Z,4.77
2023-03-27T02:32:39.829Z,4.79
2023-03-27T02:37:53.223Z,4.68
2023-03-27T02:43:04.651Z,4.81
2023-03-27T02:48:14.131Z,4.85
2023-03-27T02:53:21.228Z,4.64
2023-03-27T02:58:32.356Z,4.56
2023-03-27T03:03:41.902Z,4.25
2023-03-27T03:08:46.818Z,4.37
2023-03-27T03:13:51.585Z,4.36
2023-03-27T03:18:55.197Z,4.26
2023-03-27T03:23:59.106Z,4.21
2023-03-27T03:29:04.706Z,4.23
2023-03-27T03:34:08.105Z,4.23
2023-03-27T03:39:12.709Z,4.16
2023-03-27T03:44:17.542Z,4.11
2023-03-27T03:49:21.034Z,4.07
2023-03-27T03:54:24.508Z,4.09
2023-03-27T03:59:30.220Z,4.18
2023-03-27T04:04:33.606Z,4.16
2023-03-27T04:09:37.043Z,4.32
2023-03-27T04:14:41.964Z,4.37
2023-03-27T04:19:46.446Z,4.35
2023-03-27T04:24:50.748Z,4.55
2023-03-27T04:29:55.551Z,4.56
2023-03-27T04:34:59.209Z,4.53
2023-03-27T04:40:05.199Z,4.53
2023-03-27T04:45:14.971Z,4.69
2023-03-27T04:50:19.480Z,4.72
2023-03-27T04:55:25.989Z,4.70
2023-03-27T05:00:30.813Z,4.74
2023-03-27T05:05:34.997Z,4.95
2023-03-27T05:10:38.580Z,4.81
2023-03-27T05:15:43.739Z,4.83
2023-03-27T05:20:49.790Z,4.91
2023-03-27T05:25:59.988Z,5.09
2023-03-27T05:31:06.323Z,5.06
2023-03-27T05:36:10.829Z,5.04
2023-03-27T05:41:16.239Z,5.07
2023-03-27T05:46:21.820Z,5.19
2023-03-27T05:51:25.598Z,5.11
2023-03-27T06:02:11.159Z,5.20
2023-03-27T06:07:15.089Z,5.28
2023-03-27T06:12:18.976Z,5.53
2023-03-27T06:17:24.052Z,5.63
2023-03-27T06:22:27.677Z,5.71
2023-03-27T06:27:32.285Z,5.88
2023-03-27T06:32:37.298Z,6.07
2023-03-27T06:43:04.514Z,6.28
2023-03-27T06:48:18.820Z,6.37
2023-03-27T06:53:27.781Z,6.80
2023-03-27T06:58:32.154Z,6.94
2023-03-27T07:03:37.050Z,7.12
2023-03-27T07:08:40.236Z,7.50
2023-03-27T07:13:45.233Z,7.37
2023-03-27T07:18:50.376Z,7.45
2023-03-27T07:23:54.573Z,7.21
2023-03-27T07:29:00.790Z,7.08
2023-03-27T07:34:05.874Z,7.36
2023-03-27T07:39:09.870Z,7.79
2023-03-27T07:44:13.456Z,7.75
2023-03-27T07:49:18.822Z,7.69
2023-03-27T07:54:22.283Z,7.77
2023-03-27T07:59:25.981Z,7.79
2023-03-27T08:04:30.847Z,7.99
2023-03-27T08:09:34.477Z,7.96
2023-03-27T08:14:38.025Z,7.85
2023-03-27T08:19:45.579Z,8.07
2023-03-27T08:24:49.413Z,8.01
2023-03-27T08:29:53.353Z,8.25
2023-03-27T08:34:58.179Z,8.13
2023-03-27T08:40:02.202Z,8.17
2023-03-27T08:45:16.512Z,8.24
2023-03-27T08:50:33.136Z,8.38
2023-03-27T08:55:42.351Z,8.32
2023-03-27T09:00:50.057Z,8.38
2023-03-27T09:06:00.511Z,8.55
2023-03-27T09:11:10.549Z,9.00
2023-03-27T09:16:20.428Z,9.67
2023-03-27T09:21:36.309Z,10.36
2023-03-27T09:26:39.816Z,10.64
2023-03-27T09:31:48.450Z,10.68
2023-03-27T09:36:53.438Z,10.04
2023-03-27T09:42:00.658Z,10.11
2023-03-27T09:47:16.321Z,10.33
2023-03-27T09:52:40.489Z,10.35
2023-03-27T09:57:44.696Z,10.33
2023-03-27T10:02:48.238Z,10.14
2023-03-27T10:07:53.170Z,10.65
2023-03-27T10:12:58.917Z,10.81
2023-03-27T10:18:06.887Z,11.05
2023-03-27T10:23:25.241Z,10.79
2023-03-27T10:28:30.954Z,11.10
2023-03-27T10:33:36.776Z,11.32
2023-03-27T10:38:44.139Z,11.73
2023-03-27T10:43:49.677Z,11.63
2023-03-27T10:49:00.591Z,11.80
2023-03-27T10:54:14.822Z,12.21
2023-03-27T10:59:34.731Z,11.96
2023-03-27T11:04:50.570Z,11.78
2023-03-27T11:10:03.063Z,11.41
2023-03-27T11:15:14.817Z,11.18
2023-03-27T11:20:26.252Z,11.08
2023-03-27T11:25:41.128Z,11.17
2023-03-27T11:30:49.394Z,11.83
2023-03-27T11:35:59.454Z,11.64
2023-03-27T11:41:04.697Z,11.40
2023-03-27T11:46:25.208Z,11.36
2023-03-27T11:51:38.314Z,11.33
2023-03-27T11:56:54.588Z,11.25
2023-03-27T12:02:02.945Z,11.08
2023-03-27T12:07:18.758Z,10.84
2023-03-27T12:13:03.089Z,10.15
2023-03-27T12:18:16.092Z,9.84
2023-03-27T12:24:01.036Z,9.53
2023-03-27T12:29:23.023Z,9.18
2023-03-27T12:34:41.694Z,9.31
2023-03-27T12:39:53.669Z,9.64
2023-03-27T12:45:14.687Z,9.95
2023-03-27T12:50:27.514Z,9.89
2023-03-27T12:55:36.061Z,9.68
2023-03-27T13:00:40.972Z,9.68
2023-03-27T13:06:04.738Z,9.88
2023-03-27T13:11:22.732Z,10.06
2023-03-27T13:16:47.438Z,10.46
2023-03-27T13:22:06.270Z,10.74
2023-03-27T13:27:23.547Z,10.60
2023-03-27T13:32:38.087Z,10.45
2023-03-27T13:37:54.398Z,10.28
2023-03-27T13:43:10.250Z,10.05
2023-03-27T13:48:44.175Z,9.77
2023-03-27T13:54:20.931Z,9.42
2023-03-27T14:00:00.693Z,9.54
2023-03-27T14:05:25.434Z,9.32
2023-03-27T14:10:57.294Z,9.27
2023-03-27T14:16:23.749Z,9.22
2023-03-27T14:21:38.268Z,9.25
2023-03-27T14:26:45.502Z,9.17
2023-03-27T14:31:49.428Z,9.10
2023-03-27T14:36:56.194Z,8.86
2023-03-27T14:42:02.244Z,8.55
2023-03-27T14:47:12.098Z,8.42
2023-03-27T14:52:25.297Z,8.35
2023-03-27T14:57:29.737Z,8.02
2023-03-27T15:02:35.722Z,8.17
2023-03-27T15:07:42.964Z,8.21
2023-03-27T15:12:48.089Z,8.16
2023-03-27T15:17:54.978Z,8.11
2023-03-27T15:23:06.680Z,7.98
2023-03-27T15:28:17.871Z,7.91
2023-03-27T15:33:26.708Z,7.98
2023-03-27T15:38:34.786Z,7.87
2023-03-27T15:43:38.276Z,7.93
2023-03-27T15:48:45.167Z,7.85
2023-03-27T15:53:53.768Z,7.73
2023-03-27T15:59:00.436Z,7.73
2023-03-27T16:04:09.109Z,7.68
2023-03-27T16:09:25.319Z,7.64
2023-03-27T16:14:31.827Z,7.47
2023-03-27T16:19:43.232Z,7.36
2023-03-27T16:24:48.222Z,7.28
2023-03-27T16:29:52.298Z,7.20
2023-03-27T16:34:55.812Z,6.90
2023-03-27T16:40:00.727Z,6.76
2023-03-27T16:45:05.286Z,6.68
2023-03-27T16:50:11.612Z,6.76
2023-03-27T16:55:17.373Z,6.72
2023-03-27T17:00:21.432Z,6.83
2023-03-27T17:05:25.995Z,6.81
2023-03-27T17:10:31.369Z,6.82
2023-03-27T17:15:38.405Z,6.83
2023-03-27T17:20:42.016Z,6.88
2023-03-27T17:25:47.875Z,6.89
2023-03-27T17:31:01.414Z,6.97
2023-03-27T17:36:11.942Z,7.02
2023-03-27T17:41:17.710Z,6.95
2023-03-27T17:46:21.733Z,6.86
2023-03-27T17:51:25.462Z,6.91
2023-03-27T17:56:30.341Z,6.85
2023-03-27T18:01:33.540Z,6.90
2023-03-27T18:06:38.176Z,6.89
2023-03-27T18:11:43.098Z,6.91
2023-03-27T18:16:46.407Z,6.97
2023-03-27T18:21:49.900Z,6.86
2023-03-27T18:26:55.504Z,6.92
2023-03-27T18:31:59.050Z,6.81
2023-03-27T18:37:02.626Z,6.82
2023-03-27T18:42:08.868Z,6.85
2023-03-27T18:47:12.376Z,6.85
2023-03-27T18:52:16.168Z,6.71
2023-03-27T18:57:21.360Z,6.66
2023-03-27T19:02:25.046Z,6.73
2023-03-27T19:07:28.657Z,6.73
2023-03-27T19:12:35.049Z,6.68
2023-03-27T19:17:40.412Z,6.64
2023-03-27T19:22:45.914Z,6.79
2023-03-27T19:27:50.790Z,6.72
2023-03-27T19:32:54.045Z,6.69
2023-03-27T19:37:57.648Z,6.72
2023-03-27T19:43:02.616Z,6.71
2023-03-27T19:48:06.585Z,6.68
2023-03-27T19:53:10.112Z,6.76
2023-03-27T19:58:14.972Z,6.80
2023-03-27T20:03:19.866Z,6.72
2023-03-27T20:08:23.885Z,6.65
2023-03-27T20:13:28.767Z,6.67
2023-03-27T20:18:34.358Z,6.71
2023-03-27T20:23:38.728Z,6.70
2023-03-27T20:28:43.618Z,6.79
2023-03-27T20:33:47.672Z,6.78
2023-03-27T20:38:52.940Z,6.66
2023-03-27T20:43:58.953Z,6.73
2023-03-27T20:49:03.708Z,6.75
2023-03-27T20:54:10.238Z,6.83
2023-03-27T20:59:15.205Z,6.95
2023-03-27T21:04:18.366Z,6.96
2023-03-27T21:09:22.265Z,6.70
2023-03-27T21:14:27.386Z,6.44
2023-03-27T21:19:30.868Z,6.19
2023-03-27T21:24:34.352Z,5.96
2023-03-27T21:29:39.352Z,5.76
2023-03-27T21:34:43.022Z,5.56
2023-03-27T21:39:46.470Z,5.38
2023-03-27T21:44:54.861Z,5.28
2023-03-27T21:50:00.172Z,5.10
2023-03-27T21:55:03.866Z,5.01
2023-03-27T22:00:10.474Z,4.83
2023-03-27T22:05:14.026Z,4.85
2023-03-27T22:10:17.791Z,4.71
2023-03-27T22:15:22.826Z,4.63
2023-03-27T22:20:26.323Z,4.49
2023-03-27T22:25:29.808Z,4.29
2023-03-27T22:30:34.715Z,3.98
2023-03-27T22:35:38.018Z,3.91
2023-03-27T22:40:41.474Z,3.73
2023-03-27T22:45:46.312Z,3.75
2023-03-27T22:50:56.194Z,3.74
2023-03-27T22:56:00.790Z,3.67
2023-03-27T23:01:06.057Z,3.65
2023-03-27T23:06:17.308Z,3.45
2023-03-27T23:11:21.350Z,3.42
2023-03-27T23:16:26.279Z,3.43
2023-03-27T23:21:29.799Z,3.34
2023-03-27T23:26:33.288Z,3.38
2023-03-27T23:31:38.220Z,3.25
2023-03-27T23:36:41.776Z,3.08
2023-03-27T23:41:45.169Z,3.11
2023-03-27T23:46:49.991Z,3.09
2023-03-27T23:51:53.357Z,3.08
2023-03-27T23:56:57.026Z,2.98
